Pagrindinis puslapis
METAR-TAF:

METAR-TAF

Oro uostai :

Kish Island, Iranas

platuma: 26-31-36N, ilguma: 053-58-54E, Aukštis: 30 m

Dabartinis oras

Ataskaita buvo paskelbta 1 valandą ir 1 minutes, ne 19:00 UTC
Vėjas 4 kt iš Vakarų
Temperatūra 31°C
Drėgmė 84%
Slėgis 996 hPa
Matomumas: 5000 m
rūkana

METAR: OIBK 171900Z 28004KT 5000 BR NSC 31/28 Q0996

Laikas: 00:31 (20:01 UTC)

Prognozė

Ataskaita buvo paskelbta 2 valandos ir 51 minutes, ne 17:10 UTC
Prognozė galioja nuo 17 metu 18 UTC su 18 metu 24 UTC
Vėjas 8 kt iš Vakarų/Šiaurės Vakarų
Matomumas: 6000 m
Laikinai
nuo 17 metu 18 UTC su 18 metu 05 UTC
Matomumas: 4000 m
Laikinai
nuo 18 metu 08 UTC su 18 metu 18 UTC
Vėjas 16 kt iš Rytų
Tikimybė 40%
nuo 18 metu 10 UTC su 18 metu 16 UTC
Matomumas: 5000 m
Laikinai
nuo 18 metu 18 UTC su 18 metu 24 UTC
Matomumas: 4000 m

TAF: OIBK 171710Z 1718/1824 30008KT 6000 NSC TEMPO 1718/1805 4000 BR/HZ TEMPO 1808/1818 10016KT PROB40 1810/1816 5000 HZ/SA TEMPO 1818/1824 4000 BR/HZ

Orai ataskaitas ir orų prognozės (METAR, TAF).

turimą stotys yra geltonos ir raudonos taškus žemėlapyje.

Perkelti pele per norėdami pamatyti stoties vardą.

Tada spustelėkite, norėdami matyti oro stebėjimo ir prognozės.

Norėdami pakeisti žemėlapį: spustelėkite ant žalios mygtukų su juodo kryžiaus žemyn,; žalią mygtuką su brūkšneliu, jei norite nutolinti; arba žalių rodyklių gretimoms žemėlapius.


METAR-TAF: